sensor_id;sensor_type;location;lat;lon;timestamp;pressure;altitude;pressure_sealevel;temperature;humidity
54806;BME280;62866;55.776;37.496;2023-03-25T00:00:05;98642.75;;;5.25;86.75
54806;BME280;62866;55.776;37.496;2023-03-25T00:02:37;98650.13;;;5.29;86.47
54806;BME280;62866;55.776;37.496;2023-03-25T00:05:03;98656.34;;;5.37;86.40
54806;BME280;62866;55.776;37.496;2023-03-25T00:07:30;98649.88;;;5.39;86.02
54806;BME280;62866;55.776;37.496;2023-03-25T00:09:55;98645.75;;;5.37;86.46
54806;BME280;62866;55.776;37.496;2023-03-25T00:12:21;98634.88;;;5.31;86.03
54806;BME280;62866;55.776;37.496;2023-03-25T00:14:46;98625.47;;;5.29;86.46
54806;BME280;62866;55.776;37.496;2023-03-25T00:17:22;98637.06;;;5.28;86.67
54806;BME280;62866;55.776;37.496;2023-03-25T00:19:50;98626.66;;;5.26;86.77
54806;BME280;62866;55.776;37.496;2023-03-25T00:22:17;98618.25;;;5.23;86.63
54806;BME280;62866;55.776;37.496;2023-03-25T00:24:43;98601.44;;;5.16;86.75
54806;BME280;62866;55.776;37.496;2023-03-25T00:27:08;98612.69;;;5.18;86.98
54806;BME280;62866;55.776;37.496;2023-03-25T00:29:34;98605.44;;;5.12;87.52
54806;BME280;62866;55.776;37.496;2023-03-25T00:32:00;98608.47;;;5.09;87.07
54806;BME280;62866;55.776;37.496;2023-03-25T00:34:25;98607.38;;;5.03;87.34
54806;BME280;62866;55.776;37.496;2023-03-25T00:36:51;98601.78;;;5.13;87.00
54806;BME280;62866;55.776;37.496;2023-03-25T00:39:16;98586.91;;;5.12;86.82
54806;BME280;62866;55.776;37.496;2023-03-25T00:41:42;98582.34;;;5.06;86.72
54806;BME280;62866;55.776;37.496;2023-03-25T00:44:10;98577.50;;;5.09;86.87
54806;BME280;62866;55.776;37.496;2023-03-25T00:46:37;98575.69;;;5.10;87.29
54806;BME280;62866;55.776;37.496;2023-03-25T00:49:02;98582.00;;;5.09;87.55
54806;BME280;62866;55.776;37.496;2023-03-25T00:51:29;98585.63;;;5.08;86.84
54806;BME280;62866;55.776;37.496;2023-03-25T00:53:58;98589.28;;;5.07;87.31
54806;BME280;62866;55.776;37.496;2023-03-25T00:56:28;98585.56;;;5.01;87.10
54806;BME280;62866;55.776;37.496;2023-03-25T00:58:54;98570.50;;;5.02;87.46
54806;BME280;62866;55.776;37.496;2023-03-25T01:01:23;98569.84;;;5.00;87.86
54806;BME280;62866;55.776;37.496;2023-03-25T01:03:52;98552.03;;;4.93;88.21
54806;BME280;62866;55.776;37.496;2023-03-25T01:06:23;98560.25;;;4.99;88.32
54806;BME280;62866;55.776;37.496;2023-03-25T01:08:54;98559.88;;;5.02;87.78
54806;BME280;62866;55.776;37.496;2023-03-25T01:11:26;98553.19;;;5.06;87.49
54806;BME280;62866;55.776;37.496;2023-03-25T01:13:54;98561.41;;;5.11;87.57
54806;BME280;62866;55.776;37.496;2023-03-25T01:16:21;98558.59;;;5.12;88.10
54806;BME280;62866;55.776;37.496;2023-03-25T01:18:47;98552.28;;;5.13;87.05
54806;BME280;62866;55.776;37.496;2023-03-25T01:21:13;98555.41;;;5.17;87.05
54806;BME280;62866;55.776;37.496;2023-03-25T01:23:39;98554.41;;;5.18;87.50
54806;BME280;62866;55.776;37.496;2023-03-25T01:26:05;98568.47;;;5.18;87.04
54806;BME280;62866;55.776;37.496;2023-03-25T01:28:30;98557.22;;;5.16;87.00
54806;BME280;62866;55.776;37.496;2023-03-25T01:31:04;98530.66;;;5.10;87.29
54806;BME280;62866;55.776;37.496;2023-03-25T01:33:30;98542.59;;;5.20;87.02
54806;BME280;62866;55.776;37.496;2023-03-25T01:35:57;98541.75;;;5.20;86.29
54806;BME280;62866;55.776;37.496;2023-03-25T01:38:23;98534.03;;;5.18;86.74
54806;BME280;62866;55.776;37.496;2023-03-25T01:40:51;98517.66;;;5.15;86.81
54806;BME280;62866;55.776;37.496;2023-03-25T01:43:19;98518.13;;;5.18;86.78
54806;BME280;62866;55.776;37.496;2023-03-25T01:45:44;98511.19;;;5.17;87.05
54806;BME280;62866;55.776;37.496;2023-03-25T01:48:24;98506.06;;;5.16;87.07
54806;BME280;62866;55.776;37.496;2023-03-25T01:50:54;98505.50;;;5.20;87.21
54806;BME280;62866;55.776;37.496;2023-03-25T01:53:22;98500.66;;;5.24;87.08
54806;BME280;62866;55.776;37.496;2023-03-25T01:55:50;98492.97;;;5.29;87.17
54806;BME280;62866;55.776;37.496;2023-03-25T01:58:18;98483.81;;;5.31;86.50
54806;BME280;62866;55.776;37.496;2023-03-25T02:00:45;98477.53;;;5.32;86.63
54806;BME280;62866;55.776;37.496;2023-03-25T02:03:14;98471.56;;;5.30;86.43
54806;BME280;62866;55.776;37.496;2023-03-25T02:08:06;98473.47;;;5.37;86.61
54806;BME280;62866;55.776;37.496;2023-03-25T02:10:34;98475.75;;;5.40;86.60
54806;BME280;62866;55.776;37.496;2023-03-25T02:13:01;98487.38;;;5.39;86.95
54806;BME280;62866;55.776;37.496;2023-03-25T02:15:42;98478.03;;;5.43;87.26
54806;BME280;62866;55.776;37.496;2023-03-25T02:21:20;98493.44;;;5.54;86.64
54806;BME280;62866;55.776;37.496;2023-03-25T02:38:45;98444.25;;;5.72;86.38
54806;BME280;62866;55.776;37.496;2023-03-25T02:41:41;98441.75;;;5.86;87.19
54806;BME280;62866;55.776;37.496;2023-03-25T02:44:26;98424.09;;;5.93;86.59
54806;BME280;62866;55.776;37.496;2023-03-25T02:46:56;98412.66;;;5.92;86.16
54806;BME280;62866;55.776;37.496;2023-03-25T02:49:31;98421.75;;;6.11;86.37
54806;BME280;62866;55.776;37.496;2023-03-25T02:52:19;98427.97;;;6.25;86.10
54806;BME280;62866;55.776;37.496;2023-03-25T02:54:50;98415.34;;;6.27;85.65
54806;BME280;62866;55.776;37.496;2023-03-25T02:57:18;98421.31;;;6.35;85.68
54806;BME280;62866;55.776;37.496;2023-03-25T02:59:46;98417.06;;;6.41;85.92
54806;BME280;62866;55.776;37.496;2023-03-25T03:02:14;98414.03;;;6.44;85.55
54806;BME280;62866;55.776;37.496;2023-03-25T03:04:48;98419.16;;;6.52;85.71
54806;BME280;62866;55.776;37.496;2023-03-25T03:07:17;98408.97;;;6.56;85.45
54806;BME280;62866;55.776;37.496;2023-03-25T03:09:53;98409.81;;;6.63;85.03
54806;BME280;62866;55.776;37.496;2023-03-25T03:12:40;98394.31;;;6.66;85.00
54806;BME280;62866;55.776;37.496;2023-03-25T03:20:38;98374.38;;;6.83;84.22
54806;BME280;62866;55.776;37.496;2023-03-25T03:23:22;98381.72;;;6.88;84.21
54806;BME280;62866;55.776;37.496;2023-03-25T03:25:56;98377.84;;;6.91;83.89
54806;BME280;62866;55.776;37.496;2023-03-25T03:28:29;98368.44;;;6.88;84.09
54806;BME280;62866;55.776;37.496;2023-03-25T03:34:10;98349.03;;;6.88;84.27
54806;BME280;62866;55.776;37.496;2023-03-25T03:36:45;98351.47;;;6.89;84.38
54806;BME280;62866;55.776;37.496;2023-03-25T03:39:27;98340.84;;;6.89;84.24
54806;BME280;62866;55.776;37.496;2023-03-25T03:42:12;98323.06;;;6.83;84.45
54806;BME280;62866;55.776;37.496;2023-03-25T03:44:44;98346.41;;;7.01;84.09
54806;BME280;62866;55.776;37.496;2023-03-25T03:47:16;98336.41;;;7.03;83.97
54806;BME280;62866;55.776;37.496;2023-03-25T03:49:51;98321.50;;;7.08;84.13
54806;BME280;62866;55.776;37.496;2023-03-25T03:52:39;98314.75;;;7.19;83.37
54806;BME280;62866;55.776;37.496;2023-03-25T03:55:13;98317.00;;;7.22;83.17
54806;BME280;62866;55.776;37.496;2023-03-25T03:57:55;98311.91;;;7.27;83.11
54806;BME280;62866;55.776;37.496;2023-03-25T04:00:25;98309.03;;;7.29;83.20
54806;BME280;62866;55.776;37.496;2023-03-25T04:03:14;98301.66;;;7.31;82.95
54806;BME280;62866;55.776;37.496;2023-03-25T04:05:44;98301.28;;;7.34;82.81
54806;BME280;62866;55.776;37.496;2023-03-25T04:08:19;98308.03;;;7.36;82.56
54806;BME280;62866;55.776;37.496;2023-03-25T04:10:55;98299.25;;;7.36;82.25
54806;BME280;62866;55.776;37.496;2023-03-25T04:13:33;98293.69;;;7.37;82.23
54806;BME280;62866;55.776;37.496;2023-03-25T04:16:00;98290.22;;;7.37;82.29
54806;BME280;62866;55.776;37.496;2023-03-25T04:18:26;98287.34;;;7.38;81.82
54806;BME280;62866;55.776;37.496;2023-03-25T04:20:53;98275.31;;;7.42;81.88
54806;BME280;62866;55.776;37.496;2023-03-25T04:23:19;98255.25;;;7.33;81.42
54806;BME280;62866;55.776;37.496;2023-03-25T04:25:45;98274.06;;;7.45;81.37
54806;BME280;62866;55.776;37.496;2023-03-25T04:28:14;98263.44;;;7.38;81.63
54806;BME280;62866;55.776;37.496;2023-03-25T04:30:42;98257.31;;;7.44;81.70
54806;BME280;62866;55.776;37.496;2023-03-25T04:33:10;98266.50;;;7.48;81.40
54806;BME280;62866;55.776;37.496;2023-03-25T04:35:36;98260.34;;;7.54;81.22
54806;BME280;62866;55.776;37.496;2023-03-25T04:38:02;98255.84;;;7.55;81.22
54806;BME280;62866;55.776;37.496;2023-03-25T04:40:28;98265.06;;;7.59;81.02
54806;BME280;62866;55.776;37.496;2023-03-25T04:42:53;98246.81;;;7.62;81.11
54806;BME280;62866;55.776;37.496;2023-03-25T04:45:21;98242.34;;;7.70;80.92
54806;BME280;62866;55.776;37.496;2023-03-25T04:47:48;98239.25;;;7.66;80.80
54806;BME280;62866;55.776;37.496;2023-03-25T04:50:24;98238.44;;;7.72;80.61
54806;BME280;62866;55.776;37.496;2023-03-25T04:52:50;98234.97;;;7.78;80.56
54806;BME280;62866;55.776;37.496;2023-03-25T04:55:17;98220.59;;;7.79;80.19
54806;BME280;62866;55.776;37.496;2023-03-25T04:57:48;98225.94;;;7.86;80.04
54806;BME280;62866;55.776;37.496;2023-03-25T05:00:16;98227.13;;;7.90;79.67
54806;BME280;62866;55.776;37.496;2023-03-25T05:02:47;98228.75;;;7.91;80.05
54806;BME280;62866;55.776;37.496;2023-03-25T05:05:14;98213.41;;;7.93;79.99
54806;BME280;62866;55.776;37.496;2023-03-25T05:07:51;98207.44;;;7.97;79.90
54806;BME280;62866;55.776;37.496;2023-03-25T05:10:23;98227.47;;;8.07;79.62
54806;BME280;62866;55.776;37.496;2023-03-25T05:12:49;98234.41;;;8.14;79.52
54806;BME280;62866;55.776;37.496;2023-03-25T05:15:15;98232.13;;;8.24;79.15
54806;BME280;62866;55.776;37.496;2023-03-25T05:17:44;98229.25;;;8.26;79.10
54806;BME280;62866;55.776;37.496;2023-03-25T05:20:10;98230.06;;;8.33;79.05
54806;BME280;62866;55.776;37.496;2023-03-25T05:22:38;98236.22;;;8.33;78.89
54806;BME280;62866;55.776;37.496;2023-03-25T05:25:05;98229.25;;;8.32;78.97
54806;BME280;62866;55.776;37.496;2023-03-25T05:27:32;98223.72;;;8.34;79.17
54806;BME280;62866;55.776;37.496;2023-03-25T05:29:58;98224.53;;;8.34;79.36
54806;BME280;62866;55.776;37.496;2023-03-25T05:32:24;98224.69;;;8.40;79.25
54806;BME280;62866;55.776;37.496;2023-03-25T05:34:53;98223.63;;;8.47;79.11
54806;BME280;62866;55.776;37.496;2023-03-25T05:37:19;98212.72;;;8.55;78.94
54806;BME280;62866;55.776;37.496;2023-03-25T05:39:44;98213.50;;;8.62;79.05
54806;BME280;62866;55.776;37.496;2023-03-25T05:42:10;98218.41;;;8.65;78.63
54806;BME280;62866;55.776;37.496;2023-03-25T05:44:36;98219.41;;;8.71;78.41
54806;BME280;62866;55.776;37.496;2023-03-25T05:47:03;98217.53;;;8.71;78.41
54806;BME280;62866;55.776;37.496;2023-03-25T05:49:28;98224.50;;;8.72;78.36
54806;BME280;62866;55.776;37.496;2023-03-25T05:51:54;98218.78;;;8.75;78.21
54806;BME280;62866;55.776;37.496;2023-03-25T05:54:20;98209.44;;;8.60;78.34
54806;BME280;62866;55.776;37.496;2023-03-25T05:56:49;98224.50;;;8.72;78.40
54806;BME280;62866;55.776;37.496;2023-03-25T05:59:15;98215.22;;;8.82;78.32
54806;BME280;62866;55.776;37.496;2023-03-25T06:01:41;98210.94;;;9.05;77.89
54806;BME280;62866;55.776;37.496;2023-03-25T06:04:11;98212.44;;;9.26;77.06
54806;BME280;62866;55.776;37.496;2023-03-25T06:06:37;98203.59;;;9.50;76.40
54806;BME280;62866;55.776;37.496;2023-03-25T06:09:04;98197.16;;;9.58;76.50
54806;BME280;62866;55.776;37.496;2023-03-25T06:11:30;98196.50;;;9.81;76.40
54806;BME280;62866;55.776;37.496;2023-03-25T06:14:03;98204.81;;;9.91;75.61
54806;BME280;62866;55.776;37.496;2023-03-25T06:16:28;98195.66;;;9.80;76.17
54806;BME280;62866;55.776;37.496;2023-03-25T06:18:58;98200.06;;;9.75;76.23
54806;BME280;62866;55.776;37.496;2023-03-25T06:21:27;98194.34;;;9.71;76.02
54806;BME280;62866;55.776;37.496;2023-03-25T06:23:54;98194.19;;;9.66;76.54
54806;BME280;62866;55.776;37.496;2023-03-25T06:26:22;98192.91;;;9.50;76.85
54806;BME280;62866;55.776;37.496;2023-03-25T06:28:49;98184.81;;;9.39;77.33
54806;BME280;62866;55.776;37.496;2023-03-25T06:31:19;98190.81;;;9.34;77.30
54806;BME280;62866;55.776;37.496;2023-03-25T06:33:47;98192.78;;;9.21;77.73
54806;BME280;62866;55.776;37.496;2023-03-25T06:36:15;98184.28;;;9.05;78.05
54806;BME280;62866;55.776;37.496;2023-03-25T06:38:45;98186.88;;;8.94;78.51
54806;BME280;62866;55.776;37.496;2023-03-25T06:41:13;98197.78;;;8.86;78.62
54806;BME280;62866;55.776;37.496;2023-03-25T06:43:39;98198.06;;;8.78;79.38
54806;BME280;62866;55.776;37.496;2023-03-25T06:46:06;98196.22;;;8.71;80.01
54806;BME280;62866;55.776;37.496;2023-03-25T06:48:32;98198.78;;;8.60;80.69
54806;BME280;62866;55.776;37.496;2023-03-25T06:50:58;98190.84;;;8.47;81.30
54806;BME280;62866;55.776;37.496;2023-03-25T06:53:23;98189.09;;;8.34;81.85
54806;BME280;62866;55.776;37.496;2023-03-25T06:55:49;98191.75;;;8.34;82.36
54806;BME280;62866;55.776;37.496;2023-03-25T06:58:14;98181.75;;;8.23;82.39
54806;BME280;62866;55.776;37.496;2023-03-25T07:00:40;98177.31;;;8.10;83.42
54806;BME280;62866;55.776;37.496;2023-03-25T07:03:06;98182.84;;;8.09;85.45
54806;BME280;62866;55.776;37.496;2023-03-25T07:05:32;98186.94;;;8.11;85.55
54806;BME280;62866;55.776;37.496;2023-03-25T07:07:57;98186.91;;;8.18;85.56
54806;BME280;62866;55.776;37.496;2023-03-25T07:10:23;98181.38;;;8.19;85.57
54806;BME280;62866;55.776;37.496;2023-03-25T07:12:48;98187.66;;;8.31;85.65
54806;BME280;62866;55.776;37.496;2023-03-25T07:15:14;98181.69;;;8.29;85.51
54806;BME280;62866;55.776;37.496;2023-03-25T07:17:39;98190.97;;;8.27;86.46
54806;BME280;62866;55.776;37.496;2023-03-25T07:20:08;98191.38;;;8.24;86.50
54806;BME280;62866;55.776;37.496;2023-03-25T07:22:34;98185.25;;;8.17;86.91
54806;BME280;62866;55.776;37.496;2023-03-25T07:24:59;98173.63;;;8.05;87.33
54806;BME280;62866;55.776;37.496;2023-03-25T07:27:25;98177.94;;;8.06;87.53
54806;BME280;62866;55.776;37.496;2023-03-25T07:29:51;98175.75;;;7.89;88.09
54806;BME280;62866;55.776;37.496;2023-03-25T07:32:16;98180.44;;;8.00;88.33
54806;BME280;62866;55.776;37.496;2023-03-25T07:34:42;98171.59;;;8.07;88.46
54806;BME280;62866;55.776;37.496;2023-03-25T07:37:08;98168.09;;;8.06;88.28
54806;BME280;62866;55.776;37.496;2023-03-25T07:39:34;98162.56;;;8.08;88.58
54806;BME280;62866;55.776;37.496;2023-03-25T07:41:59;98171.38;;;8.08;88.81
54806;BME280;62866;55.776;37.496;2023-03-25T07:44:25;98172.81;;;8.11;89.12
54806;BME280;62866;55.776;37.496;2023-03-25T07:46:51;98177.06;;;8.18;89.19
54806;BME280;62866;55.776;37.496;2023-03-25T07:49:17;98178.09;;;8.17;89.31
54806;BME280;62866;55.776;37.496;2023-03-25T07:51:43;98187.06;;;8.23;89.14
54806;BME280;62866;55.776;37.496;2023-03-25T07:54:10;98187.06;;;8.23;89.17
54806;BME280;62866;55.776;37.496;2023-03-25T07:56:36;98173.31;;;8.32;89.55
54806;BME280;62866;55.776;37.496;2023-03-25T07:59:02;98177.16;;;8.43;89.50
54806;BME280;62866;55.776;37.496;2023-03-25T08:01:28;98167.97;;;8.39;89.66
54806;BME280;62866;55.776;37.496;2023-03-25T08:03:54;98178.19;;;8.42;89.66
54806;BME280;62866;55.776;37.496;2023-03-25T08:06:19;98184.56;;;8.41;89.56
54806;BME280;62866;55.776;37.496;2023-03-25T08:08:45;98188.91;;;8.35;89.56
54806;BME280;62866;55.776;37.496;2023-03-25T08:11:11;98192.38;;;8.36;90.04
54806;BME280;62866;55.776;37.496;2023-03-25T08:13:37;98196.47;;;8.32;90.26
54806;BME280;62866;55.776;37.496;2023-03-25T08:16:14;98213.44;;;8.37;90.39
54806;BME280;62866;55.776;37.496;2023-03-25T08:18:40;98212.84;;;8.35;89.85
54806;BME280;62866;55.776;37.496;2023-03-25T08:21:10;98219.16;;;8.41;89.62
54806;BME280;62866;55.776;37.496;2023-03-25T08:23:36;98212.03;;;8.35;90.12
54806;BME280;62866;55.776;37.496;2023-03-25T08:26:02;98209.38;;;8.35;90.35
54806;BME280;62866;55.776;37.496;2023-03-25T08:28:29;98215.50;;;8.29;91.19
54806;BME280;62866;55.776;37.496;2023-03-25T08:30:55;98207.13;;;8.25;90.91
54806;BME280;62866;55.776;37.496;2023-03-25T08:33:24;98213.69;;;8.23;91.51
54806;BME280;62866;55.776;37.496;2023-03-25T08:36:06;98220.03;;;8.22;91.61
54806;BME280;62866;55.776;37.496;2023-03-25T08:38:34;98213.28;;;8.26;92.04
54806;BME280;62866;55.776;37.496;2023-03-25T08:40:59;98197.31;;;8.26;91.98
54806;BME280;62866;55.776;37.496;2023-03-25T08:43:25;98203.25;;;8.28;92.48
54806;BME280;62866;55.776;37.496;2023-03-25T08:45:51;98210.38;;;8.41;92.73
54806;BME280;62866;55.776;37.496;2023-03-25T08:48:17;98212.41;;;8.45;92.50
54806;BME280;62866;55.776;37.496;2023-03-25T08:50:42;98209.28;;;8.48;92.62
54806;BME280;62866;55.776;37.496;2023-03-25T08:53:08;98194.34;;;8.47;92.31
54806;BME280;62866;55.776;37.496;2023-03-25T08:55:34;98220.50;;;8.57;92.43
54806;BME280;62866;55.776;37.496;2023-03-25T08:58:02;98215.97;;;8.64;92.30
54806;BME280;62866;55.776;37.496;2023-03-25T09:00:28;98211.84;;;8.68;92.25
54806;BME280;62866;55.776;37.496;2023-03-25T09:02:55;98212.41;;;8.77;91.96
54806;BME280;62866;55.776;37.496;2023-03-25T09:05:23;98210.78;;;8.75;91.77
54806;BME280;62866;55.776;37.496;2023-03-25T09:07:49;98208.72;;;8.78;91.57
54806;BME280;62866;55.776;37.496;2023-03-25T09:10:15;98216.88;;;8.83;91.64
54806;BME280;62866;55.776;37.496;2023-03-25T09:12:41;98214.22;;;8.83;91.58
54806;BME280;62866;55.776;37.496;2023-03-25T09:15:08;98214.38;;;8.88;91.61
54806;BME280;62866;55.776;37.496;2023-03-25T09:17:34;98207.59;;;8.92;91.40
54806;BME280;62866;55.776;37.496;2023-03-25T09:19:59;98193.09;;;9.06;91.35
54806;BME280;62866;55.776;37.496;2023-03-25T09:22:25;98202.16;;;9.48;90.77
54806;BME280;62866;55.776;37.496;2023-03-25T09:24:51;98202.88;;;9.62;89.65
54806;BME280;62866;55.776;37.496;2023-03-25T09:27:16;98217.69;;;9.58;89.80
54806;BME280;62866;55.776;37.496;2023-03-25T09:29:42;98222.66;;;9.72;89.61
54806;BME280;62866;55.776;37.496;2023-03-25T09:32:07;98226.25;;;9.84;89.46
54806;BME280;62866;55.776;37.496;2023-03-25T09:34:34;98244.72;;;9.86;89.33
54806;BME280;62866;55.776;37.496;2023-03-25T09:37:00;98246.84;;;9.77;88.87
54806;BME280;62866;55.776;37.496;2023-03-25T09:39:27;98251.47;;;9.64;89.29
54806;BME280;62866;55.776;37.496;2023-03-25T09:47:28;98247.63;;;9.60;89.32
54806;BME280;62866;55.776;37.496;2023-03-25T09:50:00;98254.16;;;9.64;89.26
54806;BME280;62866;55.776;37.496;2023-03-25T09:52:38;98254.22;;;9.57;89.23
54806;BME280;62866;55.776;37.496;2023-03-25T09:55:08;98253.94;;;9.65;89.06
54806;BME280;62866;55.776;37.496;2023-03-25T09:57:45;98239.28;;;9.74;89.15
54806;BME280;62866;55.776;37.496;2023-03-25T10:00:24;98248.19;;;9.86;88.94
54806;BME280;62866;55.776;37.496;2023-03-25T10:05:44;98239.97;;;10.24;87.87
54806;BME280;62866;55.776;37.496;2023-03-25T10:11:14;98252.41;;;10.49;87.90
54806;BME280;62866;55.776;37.496;2023-03-25T10:19:05;98255.59;;;10.57;87.07
54806;BME280;62866;55.776;37.496;2023-03-25T10:21:51;98255.59;;;10.57;87.17
54806;BME280;62866;55.776;37.496;2023-03-25T10:24:35;98255.28;;;10.65;86.87
54806;BME280;62866;55.776;37.496;2023-03-25T10:27:21;98252.38;;;10.67;86.22
54806;BME280;62866;55.776;37.496;2023-03-25T10:32:56;98240.16;;;10.59;86.62
54806;BME280;62866;55.776;37.496;2023-03-25T10:35:44;98228.69;;;10.71;86.17
54806;BME280;62866;55.776;37.496;2023-03-25T10:38:20;98232.09;;;10.89;85.71
54806;BME280;62866;55.776;37.496;2023-03-25T10:43:52;98239.72;;;11.16;84.96
54806;BME280;62866;55.776;37.496;2023-03-25T10:48:45;98235.56;;;11.31;84.79
54806;BME280;62866;55.776;37.496;2023-03-25T10:51:37;98231.97;;;11.26;84.30
54806;BME280;62866;55.776;37.496;2023-03-25T10:54:03;98240.88;;;11.08;84.49
54806;BME280;62866;55.776;37.496;2023-03-25T10:56:43;98246.34;;;11.01;84.89
54806;BME280;62866;55.776;37.496;2023-03-25T10:59:36;98245.53;;;11.01;85.70
54806;BME280;62866;55.776;37.496;2023-03-25T11:02:17;98226.22;;;10.99;85.82
54806;BME280;62866;55.776;37.496;2023-03-25T11:04:43;98234.59;;;11.02;85.28
54806;BME280;62866;55.776;37.496;2023-03-25T11:07:20;98251.53;;;10.96;85.66
54806;BME280;62866;55.776;37.496;2023-03-25T11:09:47;98246.44;;;10.95;85.62
54806;BME280;62866;55.776;37.496;2023-03-25T11:12:20;98253.00;;;10.81;85.61
54806;BME280;62866;55.776;37.496;2023-03-25T11:14:54;98251.25;;;10.75;85.82
54806;BME280;62866;55.776;37.496;2023-03-25T11:17:21;98235.91;;;10.70;86.23
54806;BME280;62866;55.776;37.496;2023-03-25T11:19:58;98262.66;;;10.82;86.20
54806;BME280;62866;55.776;37.496;2023-03-25T11:22:30;98251.03;;;10.76;86.15
54806;BME280;62866;55.776;37.496;2023-03-25T11:25:03;98227.38;;;10.61;85.80
54806;BME280;62866;55.776;37.496;2023-03-25T11:27:39;98244.41;;;10.79;86.31
54806;BME280;62866;55.776;37.496;2023-03-25T11:30:14;98231.53;;;10.87;85.41
54806;BME280;62866;55.776;37.496;2023-03-25T11:32:40;98242.25;;;10.87;85.32
54806;BME280;62866;55.776;37.496;2023-03-25T11:35:21;98230.34;;;10.83;85.71
54806;BME280;62866;55.776;37.496;2023-03-25T11:37:54;98246.28;;;10.90;85.64
54806;BME280;62866;55.776;37.496;2023-03-25T11:40:20;98254.47;;;10.95;85.34
54806;BME280;62866;55.776;37.496;2023-03-25T11:42:51;98255.94;;;10.91;85.66
54806;BME280;62866;55.776;37.496;2023-03-25T11:47:47;98254.53;;;10.88;85.50
54806;BME280;62866;55.776;37.496;2023-03-25T11:50:26;98255.84;;;10.97;85.25
54806;BME280;62866;55.776;37.496;2023-03-25T11:53:02;98255.03;;;10.97;85.09
54806;BME280;62866;55.776;37.496;2023-03-25T11:55:36;98252.47;;;10.90;85.05
54806;BME280;62866;55.776;37.496;2023-03-25T11:58:16;98246.50;;;10.88;85.59
54806;BME280;62866;55.776;37.496;2023-03-25T12:00:51;98254.09;;;10.91;85.36
54806;BME280;62866;55.776;37.496;2023-03-25T12:03:25;98257.81;;;10.90;85.00
54806;BME280;62866;55.776;37.496;2023-03-25T12:08:29;98261.06;;;10.92;84.66
54806;BME280;62866;55.776;37.496;2023-03-25T12:11:08;98255.13;;;10.90;85.00
54806;BME280;62866;55.776;37.496;2023-03-25T12:16:23;98263.31;;;10.95;85.32
54806;BME280;62866;55.776;37.496;2023-03-25T12:19:10;98262.72;;;10.93;85.35
54806;BME280;62866;55.776;37.496;2023-03-25T12:21:46;98272.22;;;10.89;85.24
54806;BME280;62866;55.776;37.496;2023-03-25T12:24:57;98258.41;;;10.92;85.07
54806;BME280;62866;55.776;37.496;2023-03-25T12:29:36;98261.56;;;11.01;85.14
54806;BME280;62866;55.776;37.496;2023-03-25T12:43:13;98255.13;;;10.90;84.82
54806;BME280;62866;55.776;37.496;2023-03-25T12:51:24;98257.69;;;10.97;84.50
54806;BME280;62866;55.776;37.496;2023-03-25T12:54:19;98258.06;;;11.00;84.73
54806;BME280;62866;55.776;37.496;2023-03-25T13:00:03;98258.03;;;10.89;84.83
54806;BME280;62866;55.776;37.496;2023-03-25T13:07:49;98248.41;;;10.99;84.42
54806;BME280;62866;55.776;37.496;2023-03-25T13:12:53;98238.25;;;11.31;83.48
54806;BME280;62866;55.776;37.496;2023-03-25T13:15:23;98245.50;;;11.54;83.15
54806;BME280;62866;55.776;37.496;2023-03-25T13:18:01;98244.44;;;11.67;82.62
54806;BME280;62866;55.776;37.496;2023-03-25T13:20:31;98230.94;;;11.73;82.34
54806;BME280;62866;55.776;37.496;2023-03-25T13:23:02;98232.47;;;11.69;81.96
54806;BME280;62866;55.776;37.496;2023-03-25T13:25:41;98235.81;;;11.65;82.29
54806;BME280;62866;55.776;37.496;2023-03-25T13:28:16;98241.16;;;11.65;82.37
54806;BME280;62866;55.776;37.496;2023-03-25T13:30:46;98244.94;;;11.75;82.37
54806;BME280;62866;55.776;37.496;2023-03-25T13:33:25;98247.72;;;11.81;82.24
54806;BME280;62866;55.776;37.496;2023-03-25T13:38:55;98262.38;;;11.90;81.89
54806;BME280;62866;55.776;37.496;2023-03-25T13:41:30;98249.13;;;11.95;81.74
54806;BME280;62866;55.776;37.496;2023-03-25T13:46:43;98243.44;;;11.80;81.79
54806;BME280;62866;55.776;37.496;2023-03-25T13:49:21;98255.97;;;11.67;81.59
54806;BME280;62866;55.776;37.496;2023-03-25T13:51:48;98256.19;;;11.54;82.33
54806;BME280;62866;55.776;37.496;2023-03-25T13:54:24;98248.72;;;11.56;82.21
54806;BME280;62866;55.776;37.496;2023-03-25T14:02:31;98258.59;;;11.32;83.13
54806;BME280;62866;55.776;37.496;2023-03-25T14:11:20;98257.53;;;11.22;82.69
54806;BME280;62866;55.776;37.496;2023-03-25T14:13:57;98257.31;;;11.23;82.54
54806;BME280;62866;55.776;37.496;2023-03-25T14:16:29;98263.69;;;11.22;82.38
54806;BME280;62866;55.776;37.496;2023-03-25T14:19:02;98251.41;;;11.21;82.59
54806;BME280;62866;55.776;37.496;2023-03-25T14:24:32;98252.59;;;10.95;82.91
54806;BME280;62866;55.776;37.496;2023-03-25T14:34:42;98271.31;;;10.95;83.30
54806;BME280;62866;55.776;37.496;2023-03-25T14:37:30;98258.13;;;10.82;83.09
54806;BME280;62866;55.776;37.496;2023-03-25T14:39:58;98272.09;;;10.84;83.59
54806;BME280;62866;55.776;37.496;2023-03-25T14:44:53;98272.75;;;10.80;83.62
54806;BME280;62866;55.776;37.496;2023-03-25T14:47:50;98279.84;;;10.74;83.84
54806;BME280;62866;55.776;37.496;2023-03-25T14:50:29;98278.06;;;10.68;83.73
54806;BME280;62866;55.776;37.496;2023-03-25T14:53:09;98282.00;;;10.65;83.81
54806;BME280;62866;55.776;37.496;2023-03-25T14:55:46;98283.50;;;10.61;84.04
54806;BME280;62866;55.776;37.496;2023-03-25T14:58:24;98283.94;;;10.58;84.34
54806;BME280;62866;55.776;37.496;2023-03-25T15:01:11;98288.47;;;10.58;84.22
54806;BME280;62866;55.776;37.496;2023-03-25T15:03:40;98287.16;;;10.49;84.53
54806;BME280;62866;55.776;37.496;2023-03-25T15:06:13;98294.06;;;10.38;84.63
54806;BME280;62866;55.776;37.496;2023-03-25T15:08:43;98294.06;;;10.38;84.84
54806;BME280;62866;55.776;37.496;2023-03-25T15:11:14;98293.84;;;10.40;84.76
54806;BME280;62866;55.776;37.496;2023-03-25T15:13:49;98289.00;;;10.30;84.61
54806;BME280;62866;55.776;37.496;2023-03-25T15:16:38;98285.38;;;10.24;84.98